createdAt,value
2023-04-25T00:03:13.626Z,9.88
2023-04-25T00:08:15.229Z,13.73
2023-04-25T00:13:18.331Z,13.13
2023-04-25T00:18:20.996Z,13.30
2023-04-25T00:23:22.495Z,13.32
2023-04-25T00:28:23.832Z,24.27
2023-04-25T00:33:25.344Z,13.38
2023-04-25T00:38:26.711Z,11.13
2023-04-25T00:43:31.145Z,10.43
2023-04-25T00:48:32.616Z,10.32
2023-04-25T00:53:34.171Z,15.82
2023-04-25T00:58:35.766Z,12.13
2023-04-25T01:03:44.011Z,14.30
2023-04-25T01:08:45.704Z,14.32
2023-04-25T01:13:47.149Z,11.10
2023-04-25T01:18:49.220Z,11.18
2023-04-25T01:23:51.207Z,10.57
2023-04-25T01:28:53.096Z,12.25
2023-04-25T01:33:54.510Z,10.60
2023-04-25T01:38:56.254Z,8.15
2023-04-25T01:43:57.901Z,9.93
2023-04-25T01:48:59.248Z,6.82
2023-04-25T01:54:01.519Z,10.00
2023-04-25T01:59:02.929Z,7.93
2023-04-25T02:04:04.567Z,11.80
2023-04-25T02:09:06.163Z,10.55
2023-04-25T02:14:07.503Z,8.50
2023-04-25T02:19:08.884Z,11.00
2023-04-25T02:24:10.419Z,13.10
2023-04-25T02:29:11.857Z,14.95
2023-04-25T02:34:13.218Z,10.48
2023-04-25T02:39:14.576Z,11.65
2023-04-25T02:44:15.955Z,13.52
2023-04-25T02:49:17.293Z,9.85
2023-04-25T02:54:18.656Z,11.75
2023-04-25T02:59:20.258Z,12.10
2023-04-25T03:04:24.670Z,11.10
2023-04-25T03:09:26.241Z,12.60
2023-04-25T03:14:27.590Z,12.07
2023-04-25T03:19:28.935Z,10.85
2023-04-25T03:24:30.370Z,13.13
2023-04-25T03:29:31.735Z,12.80
2023-04-25T03:34:33.138Z,7.43
2023-04-25T03:39:34.510Z,13.15
2023-04-25T03:44:35.832Z,8.57
2023-04-25T03:49:37.740Z,8.90
2023-04-25T03:54:39.483Z,9.27
2023-04-25T03:59:40.986Z,15.68
2023-04-25T04:04:42.604Z,11.00
2023-04-25T04:09:44.226Z,8.52
2023-04-25T04:14:45.574Z,11.43
2023-04-25T04:19:47.033Z,15.10
2023-04-25T04:24:48.481Z,11.52
2023-04-25T04:29:51.146Z,9.00
2023-04-25T04:34:53.162Z,9.23
2023-04-25T04:39:54.659Z,13.57
2023-04-25T04:44:56.084Z,13.40
2023-04-25T04:49:58.091Z,11.88
2023-04-25T04:54:59.535Z,10.48
2023-04-25T05:00:01.464Z,10.35
2023-04-25T05:05:02.870Z,11.45
2023-04-25T05:10:04.669Z,11.65
2023-04-25T05:15:06.657Z,10.30
2023-04-25T05:20:10.226Z,12.45
2023-04-25T05:25:11.872Z,6.80
2023-04-25T05:30:13.277Z,12.50
2023-04-25T05:35:14.658Z,8.57
2023-04-25T05:40:16.172Z,9.60
2023-04-25T05:45:18.493Z,8.98
2023-04-25T05:50:19.843Z,8.95
2023-04-25T05:55:21.187Z,10.68
2023-04-25T06:00:23.740Z,5.90
2023-04-25T06:05:25.929Z,8.75
2023-04-25T06:10:27.538Z,5.35
2023-04-25T06:15:29.382Z,5.50
2023-04-25T06:20:30.801Z,5.60
2023-04-25T06:25:32.203Z,5.47
2023-04-25T06:30:33.523Z,3.22
2023-04-25T06:35:35.370Z,7.97
2023-04-25T06:40:36.801Z,5.47
2023-04-25T06:45:38.137Z,5.80
2023-04-25T06:50:39.589Z,4.97
2023-04-25T06:55:41.348Z,5.45
2023-04-25T07:00:43.158Z,4.28
2023-04-25T07:05:46.654Z,7.15
2023-04-25T07:10:49.877Z,7.05
2023-04-25T07:15:51.652Z,7.85
2023-04-25T07:20:52.999Z,3.50
2023-04-25T07:25:54.477Z,9.73
2023-04-25T07:30:55.795Z,5.47
2023-04-25T07:35:57.496Z,9.15
2023-04-25T07:40:58.859Z,5.93
2023-04-25T07:46:00.381Z,3.95
2023-04-25T07:51:01.772Z,3.40
2023-04-25T07:56:03.136Z,3.22
2023-04-25T08:01:04.633Z,3.22
2023-04-25T08:06:08.126Z,5.32
2023-04-25T08:11:10.263Z,3.00
2023-04-25T08:16:11.701Z,7.68
2023-04-25T08:21:13.302Z,6.75
2023-04-25T08:26:14.722Z,5.10
2023-04-25T08:31:16.110Z,4.30
2023-04-25T08:36:27.872Z,5.63
2023-04-25T08:41:41.713Z,4.05
2023-04-25T08:46:43.737Z,6.18
2023-04-25T08:51:47.799Z,3.88
2023-04-25T08:56:49.490Z,4.32
2023-04-25T09:01:52.320Z,5.80
2023-04-25T09:06:53.660Z,7.53
2023-04-25T09:11:55.523Z,4.88
2023-04-25T09:16:56.874Z,3.78
2023-04-25T09:22:00.250Z,3.05
2023-04-25T09:27:05.000Z,5.78
2023-04-25T09:32:25.571Z,6.50
2023-04-25T09:37:31.352Z,5.72
2023-04-25T09:42:35.344Z,2.42
2023-04-25T09:47:38.764Z,4.82
2023-04-25T09:52:40.296Z,3.50
2023-04-25T09:57:42.276Z,4.68
2023-04-25T10:02:47.735Z,6.55
2023-04-25T10:07:49.276Z,2.45
2023-04-25T10:12:50.776Z,4.68
2023-04-25T10:17:52.671Z,6.90
2023-04-25T10:22:57.388Z,2.45
2023-04-25T10:28:00.650Z,6.53
2023-04-25T10:33:02.018Z,4.07
2023-04-25T10:38:10.864Z,3.83
2023-04-25T10:43:41.585Z,5.55
2023-04-25T10:48:51.827Z,9.85
2023-04-25T10:53:56.286Z,1.92
2023-04-25T10:59:12.818Z,2.90
2023-04-25T11:04:32.035Z,4.70
2023-04-25T11:09:35.847Z,3.92
2023-04-25T11:14:37.498Z,3.47
2023-04-25T11:19:38.829Z,3.40
2023-04-25T11:24:40.349Z,2.97
2023-04-25T11:29:42.087Z,2.88
2023-04-25T11:34:46.108Z,5.72
2023-04-25T11:39:48.161Z,3.75
2023-04-25T11:44:49.713Z,2.60
2023-04-25T11:49:54.496Z,2.15
2023-04-25T11:54:57.193Z,2.28
2023-04-25T12:00:08.121Z,2.88
2023-04-25T12:05:29.475Z,4.95
2023-04-25T12:10:32.182Z,8.18
2023-04-25T12:15:34.499Z,3.03
2023-04-25T12:20:36.351Z,6.45
2023-04-25T12:25:43.039Z,2.55
2023-04-25T12:31:05.137Z,4.47
2023-04-25T12:36:11.988Z,4.70
2023-04-25T12:41:13.366Z,6.97
2023-04-25T12:46:14.750Z,9.85
2023-04-25T12:51:16.258Z,4.65
2023-04-25T12:56:17.640Z,1.35
2023-04-25T13:01:19.005Z,3.17
2023-04-25T13:06:21.552Z,4.50
2023-04-25T13:11:22.913Z,4.78
2023-04-25T13:16:24.414Z,4.82
2023-04-25T13:21:26.385Z,3.55
2023-04-25T13:26:27.826Z,4.05
2023-04-25T13:31:29.215Z,2.72
2023-04-25T13:36:30.593Z,4.13
2023-04-25T13:41:32.051Z,2.65
2023-04-25T13:46:45.580Z,10.88
2023-04-25T13:51:48.670Z,1.80
2023-04-25T13:56:51.401Z,4.75
2023-04-25T14:01:52.949Z,6.90
2023-04-25T14:06:54.417Z,1.35
2023-04-25T14:11:56.120Z,1.80
2023-04-25T14:16:58.190Z,3.08
2023-04-25T14:21:59.612Z,3.90
2023-04-25T14:27:01.670Z,5.93
2023-04-25T14:32:03.549Z,4.05
2023-04-25T14:37:04.948Z,2.75
2023-04-25T14:42:06.420Z,2.95
2023-04-25T14:47:07.854Z,3.97
2023-04-25T14:52:09.262Z,6.03
2023-04-25T14:57:10.611Z,6.15
2023-04-25T15:02:12.300Z,4.07
2023-04-25T15:07:13.640Z,1.88
2023-04-25T15:12:15.332Z,3.50
2023-04-25T15:17:16.934Z,2.25
2023-04-25T15:22:18.287Z,2.60
2023-04-25T15:27:19.622Z,2.92
2023-04-25T15:32:22.113Z,3.10
2023-04-25T15:37:23.505Z,2.90
2023-04-25T15:42:24.877Z,3.38
2023-04-25T15:47:27.244Z,2.90
2023-04-25T15:52:28.746Z,3.35
2023-04-25T15:57:30.858Z,1.67
2023-04-25T16:02:32.429Z,4.00
2023-04-25T16:07:33.852Z,5.25
2023-04-25T16:12:36.258Z,6.68
2023-04-25T16:17:37.659Z,3.97
2023-04-25T16:22:40.644Z,2.67
2023-04-25T16:27:42.021Z,4.63
2023-04-25T16:32:45.396Z,4.82
2023-04-25T16:37:47.686Z,3.30
2023-04-25T16:42:49.109Z,3.88
2023-04-25T16:47:50.557Z,2.80
2023-04-25T16:52:52.004Z,1.88
2023-04-25T16:57:53.330Z,3.15
2023-04-25T17:02:54.810Z,2.33
2023-04-25T17:07:56.815Z,2.90
2023-04-25T17:12:58.162Z,6.63
2023-04-25T17:18:00.625Z,2.50
2023-04-25T17:23:02.208Z,2.95
2023-04-25T17:28:03.787Z,4.38
2023-04-25T17:33:06.581Z,5.45
2023-04-25T17:38:08.646Z,2.78
2023-04-25T17:43:10.051Z,3.20
2023-04-25T17:48:11.459Z,2.40
2023-04-25T17:53:12.798Z,1.92
2023-04-25T17:58:14.826Z,3.88
2023-04-25T18:03:16.405Z,6.00
2023-04-25T18:08:18.438Z,5.35
2023-04-25T18:13:19.762Z,6.10
2023-04-25T18:18:25.313Z,1.20
2023-04-25T18:23:27.430Z,2.45
2023-04-25T18:28:29.210Z,7.05
2023-04-25T18:33:31.509Z,5.55
2023-04-25T18:38:35.843Z,3.90
2023-04-25T18:43:37.678Z,1.42
2023-04-25T18:48:39.030Z,6.05
2023-04-25T18:53:41.267Z,4.32
2023-04-25T18:58:42.747Z,2.53
2023-04-25T19:03:44.793Z,3.05
2023-04-25T19:08:46.576Z,1.00
2023-04-25T19:13:51.228Z,1.88
2023-04-25T19:18:54.582Z,3.05
2023-04-25T19:23:56.429Z,3.25
2023-04-25T19:29:09.726Z,2.88
2023-04-25T19:34:12.843Z,3.95
2023-04-25T19:39:14.485Z,3.08
2023-04-25T19:44:15.885Z,7.97
2023-04-25T19:49:17.211Z,1.90
2023-04-25T19:54:18.555Z,7.03
2023-04-25T19:59:20.055Z,3.97
2023-04-25T20:04:21.454Z,2.85
2023-04-25T20:09:23.267Z,3.30
2023-04-25T20:14:24.579Z,4.03
2023-04-25T20:19:25.896Z,12.00
2023-04-25T20:24:27.370Z,2.00
2023-04-25T20:29:28.683Z,3.45
2023-04-25T20:34:31.516Z,5.32
2023-04-25T20:39:33.197Z,6.00
2023-04-25T20:44:34.528Z,4.57
2023-04-25T20:49:36.427Z,2.42
2023-04-25T20:54:38.372Z,2.33
2023-04-25T20:59:39.676Z,1.40
2023-04-25T21:04:42.533Z,1.27
2023-04-25T21:09:45.345Z,2.03
2023-04-25T21:14:46.712Z,5.40
2023-04-25T21:19:48.034Z,2.50
2023-04-25T21:24:50.698Z,5.30
2023-04-25T21:29:52.040Z,4.15
2023-04-25T21:34:53.367Z,3.55
2023-04-25T21:39:54.699Z,6.43
2023-04-25T21:44:56.099Z,3.35
2023-04-25T21:49:59.200Z,1.73
2023-04-25T21:55:00.868Z,3.30
2023-04-25T22:00:04.330Z,5.05
2023-04-25T22:05:06.409Z,3.00
2023-04-25T22:10:08.212Z,4.68
2023-04-25T22:15:10.316Z,3.45
2023-04-25T22:20:13.775Z,5.53
2023-04-25T22:25:15.151Z,2.85
2023-04-25T22:30:16.977Z,2.78
2023-04-25T22:35:19.188Z,4.85
2023-04-25T22:40:20.554Z,2.25
2023-04-25T22:45:21.900Z,5.25
2023-04-25T22:50:23.266Z,2.30
2023-04-25T22:55:26.389Z,5.15
2023-04-25T23:00:30.176Z,3.30
2023-04-25T23:05:32.712Z,3.13
2023-04-25T23:10:34.166Z,4.25
2023-04-25T23:15:35.815Z,5.25
2023-04-25T23:20:37.353Z,5.80
2023-04-25T23:25:41.622Z,5.90
2023-04-25T23:30:43.017Z,1.45
2023-04-25T23:35:44.382Z,2.75
2023-04-25T23:40:45.920Z,5.60
2023-04-25T23:45:47.365Z,4.43
2023-04-25T23:50:48.690Z,7.40
2023-04-25T23:55:50.023Z,4.97
